Oriana — ZCDU9 — position and weather

sailwx.info

Track history (hours):
 
Tides and Currents Weather Stations Pressure Air Temp Water Temp Dewpoint Dewpoint Depression Visibility Wind Speed Wind Dir Waves Ship Positions

Oriana (Bermuda)

Last reported at 2014-Sep-30 13:00 UTC. Time now 2014-Sep-30 15:50 UTC.
Position N 40°24' E 018°24'.

Length 261 m; beam 32.2 m; draft 8.2 m.

Type: Ship. MMSI: 310529000.

Wind from 360 at 12 knots

Waves 0.5 meters (2 feet), 3 second period

Barometer 1025.7 mb
Air temperature 21.5 ° C
Visibility: greater than 10.8 NM
Dewpoint 15.7 ° C
Water temperature 22.0 ° C

Date/timePositionNaut miles runAvg speedWind from/ knotsBaromVisibWave heightAir tempDewpointWater temp
2014-Sep-30 13:00N 40°24' E 018°24'   360 / 121025.710.8 0.521.515.722.0
2014-Sep-25 00:33N 38°19' E 013°50'1817.8
2014-Sep-24 23:33N 38°19' E 013°27'19322.5
2014-Sep-24 15:00N 37°54' E 009°24'3368.1 080 / 71015.810.8 25.020.4
2014-Sep-24 14:31N 38°03' E 010°04'1717.4
2014-Sep-24 13:31N 38°00' E 009°42'1917.5
2014-Sep-24 12:27N 37°58' E 009°19'1717.4
2014-Sep-24 11:28N 37°55' E 008°58'69118.0
2014-Sep-22 21:08N 35°59' W 005°15'136 7.6
2014-Sep-22 03:08N 36°32' W 007°59'910.6
2014-Sep-22 02:18N 36°31' W 008°09'1620.4
2014-Sep-22 01:32N 36°31' W 008°29'8516.7
2014-Sep-21 20:27N 37°32' W 009°44'1820.3
2014-Sep-21 19:34N 37°49' W 009°50'2120.1
2014-Sep-21 18:31N 38°10' W 009°55'  
Track history (hours):
 
Tides and Currents Weather Stations Pressure Air Temp Water Temp Dewpoint Dewpoint Depression Visibility Wind Speed Wind Dir Waves Ship Positions

Oriana (Bermuda)

Last reported at 2014-Sep-30 13:00 UTC. Time now 2014-Sep-30 15:50 UTC.
Position N 40°24' E 018°24'.

Length 261 m; beam 32.2 m; draft 8.2 m.

Type: Ship. MMSI: 310529000.

Wind from 360 at 12 knots

Waves 0.5 meters (2 feet), 3 second period

Barometer 1025.7 mb
Air temperature 21.5 ° C
Visibility: greater than 10.8 NM
Dewpoint 15.7 ° C
Water temperature 22.0 ° C

Date/timePositionNaut miles runAvg speedWind from/ knotsBaromVisibWave heightAir tempDewpointWater temp
2014-Sep-30 13:00N 40°24' E 018°24'   360 / 121025.710.8 0.521.515.722.0
2014-Sep-25 00:33N 38°19' E 013°50'1817.8
2014-Sep-24 23:33N 38°19' E 013°27'19322.5
2014-Sep-24 15:00N 37°54' E 009°24'3368.1 080 / 71015.810.8 25.020.4
2014-Sep-24 14:31N 38°03' E 010°04'1717.4
2014-Sep-24 13:31N 38°00' E 009°42'1917.5
2014-Sep-24 12:27N 37°58' E 009°19'1717.4
2014-Sep-24 11:28N 37°55' E 008°58'69118.0
2014-Sep-22 21:08N 35°59' W 005°15'136 7.6
2014-Sep-22 03:08N 36°32' W 007°59'910.6
2014-Sep-22 02:18N 36°31' W 008°09'1620.4
2014-Sep-22 01:32N 36°31' W 008°29'8516.7
2014-Sep-21 20:27N 37°32' W 009°44'1820.3
2014-Sep-21 19:34N 37°49' W 009°50'2120.1
2014-Sep-21 18:31N 38°10' W 009°55'  

Dump ship's entire track history